Terminal Aerodrome Forecast
Issued by NWS Cleveland, OH

Home | Current Version | Previous Version | Graphics & Text | Print | Product List | Glossary On
Versions: 1 2 3 4 5 6 7 8 9 10 11 12 13 14 15 16 17 18 19 20 21 22 23 24 25 26 27 28 29
000
FTUS41 KCLE 122020 AAB
TAFCLE
TAF AMD
KCLE 122020Z 1220/1324 31015G25KT 6SM -SHSN BKN040 OVC050
      TEMPO 1221/1224 30015KT 1SM -SHSN OVC025
     FM130100 29015G25KT 6SM -SHSN BKN025
     FM130500 28012KT P6SM BKN025
     FM131800 27012G20KT P6SM OVC025
     FM132000 24011KT 3SM -SN OVC015=

USA.gov is the U.S. government's official web portal to all federal, state and local government web resources and services.